sensor_id;sensor_type;location;lat;lon;timestamp;temperature;humidity
9393;DHT22;4736;52.508;13.422;2023-02-26T00:02:30;-0.30;76.50
9393;DHT22;4736;52.508;13.422;2023-02-26T00:05:33;-0.40;76.70
9393;DHT22;4736;52.508;13.422;2023-02-26T00:08:36;-0.30;76.40
9393;DHT22;4736;52.508;13.422;2023-02-26T00:11:39;-0.30;76.10
9393;DHT22;4736;52.508;13.422;2023-02-26T00:14:42;-0.40;76.20
9393;DHT22;4736;52.508;13.422;2023-02-26T00:17:53;-0.30;76.20
9393;DHT22;4736;52.508;13.422;2023-02-26T00:21:00;-0.30;76.00
9393;DHT22;4736;52.508;13.422;2023-02-26T00:24:04;-0.30;76.10
9393;DHT22;4736;52.508;13.422;2023-02-26T00:27:09;-0.30;76.00
9393;DHT22;4736;52.508;13.422;2023-02-26T00:30:13;-0.40;75.80
9393;DHT22;4736;52.508;13.422;2023-02-26T00:33:18;-0.30;75.70
9393;DHT22;4736;52.508;13.422;2023-02-26T00:36:23;-0.30;75.70
9393;DHT22;4736;52.508;13.422;2023-02-26T00:39:35;-0.30;75.50
9393;DHT22;4736;52.508;13.422;2023-02-26T00:42:43;-0.30;75.30
9393;DHT22;4736;52.508;13.422;2023-02-26T00:45:52;-0.30;75.40
9393;DHT22;4736;52.508;13.422;2023-02-26T00:49:03;-0.20;75.30
9393;DHT22;4736;52.508;13.422;2023-02-26T00:52:13;-0.20;75.00
9393;DHT22;4736;52.508;13.422;2023-02-26T00:55:17;-0.10;75.00
9393;DHT22;4736;52.508;13.422;2023-02-26T00:58:21;-0.20;75.10
9393;DHT22;4736;52.508;13.422;2023-02-26T01:01:24;-0.20;75.10
9393;DHT22;4736;52.508;13.422;2023-02-26T01:04:29;-0.10;75.00
9393;DHT22;4736;52.508;13.422;2023-02-26T01:07:39;-0.10;74.60
9393;DHT22;4736;52.508;13.422;2023-02-26T01:10:44;-0.10;74.60
9393;DHT22;4736;52.508;13.422;2023-02-26T01:13:50;-0.10;74.50
9393;DHT22;4736;52.508;13.422;2023-02-26T01:16:58;-0.10;74.50
9393;DHT22;4736;52.508;13.422;2023-02-26T01:20:10;-0.10;74.60
9393;DHT22;4736;52.508;13.422;2023-02-26T01:23:19;-0.10;74.30
9393;DHT22;4736;52.508;13.422;2023-02-26T01:26:26;0.00;74.00
9393;DHT22;4736;52.508;13.422;2023-02-26T01:29:32;0.00;74.00
9393;DHT22;4736;52.508;13.422;2023-02-26T01:32:42;0.00;73.80
9393;DHT22;4736;52.508;13.422;2023-02-26T01:35:50;0.00;73.80
9393;DHT22;4736;52.508;13.422;2023-02-26T01:39:01;0.00;73.60
9393;DHT22;4736;52.508;13.422;2023-02-26T01:42:11;0.00;73.50
9393;DHT22;4736;52.508;13.422;2023-02-26T01:45:18;0.00;73.80
9393;DHT22;4736;52.508;13.422;2023-02-26T01:48:35;0.00;73.70
9393;DHT22;4736;52.508;13.422;2023-02-26T01:51:47;0.00;73.60
9393;DHT22;4736;52.508;13.422;2023-02-26T01:54:50;0.00;73.60
9393;DHT22;4736;52.508;13.422;2023-02-26T01:57:56;0.00;73.50
9393;DHT22;4736;52.508;13.422;2023-02-26T02:01:01;0.00;72.90
9393;DHT22;4736;52.508;13.422;2023-02-26T02:04:07;0.00;72.50
9393;DHT22;4736;52.508;13.422;2023-02-26T02:07:13;0.00;72.60
9393;DHT22;4736;52.508;13.422;2023-02-26T02:10:17;0.00;73.00
9393;DHT22;4736;52.508;13.422;2023-02-26T02:13:32;0.00;72.80
9393;DHT22;4736;52.508;13.422;2023-02-26T02:16:43;0.00;72.80
9393;DHT22;4736;52.508;13.422;2023-02-26T02:20:04;0.00;72.40
9393;DHT22;4736;52.508;13.422;2023-02-26T02:23:16;0.00;72.50
9393;DHT22;4736;52.508;13.422;2023-02-26T02:26:43;0.00;72.50
9393;DHT22;4736;52.508;13.422;2023-02-26T02:33:22;0.10;72.30
9393;DHT22;4736;52.508;13.422;2023-02-26T02:36:33;0.10;72.10
9393;DHT22;4736;52.508;13.422;2023-02-26T02:39:41;0.00;72.40
9393;DHT22;4736;52.508;13.422;2023-02-26T02:42:48;0.00;71.90
9393;DHT22;4736;52.508;13.422;2023-02-26T02:45:56;0.00;71.70
9393;DHT22;4736;52.508;13.422;2023-02-26T02:49:06;0.00;71.70
9393;DHT22;4736;52.508;13.422;2023-02-26T02:52:18;0.10;71.90
9393;DHT22;4736;52.508;13.422;2023-02-26T02:55:25;0.00;71.90
9393;DHT22;4736;52.508;13.422;2023-02-26T02:58:31;0.10;71.90
9393;DHT22;4736;52.508;13.422;2023-02-26T03:01:39;0.10;72.00
9393;DHT22;4736;52.508;13.422;2023-02-26T03:04:45;0.10;71.90
9393;DHT22;4736;52.508;13.422;2023-02-26T03:07:52;0.00;72.10
9393;DHT22;4736;52.508;13.422;2023-02-26T03:10:56;0.00;72.10
9393;DHT22;4736;52.508;13.422;2023-02-26T03:13:59;0.00;72.20
9393;DHT22;4736;52.508;13.422;2023-02-26T03:17:11;0.00;72.10
9393;DHT22;4736;52.508;13.422;2023-02-26T03:20:25;0.00;72.10
9393;DHT22;4736;52.508;13.422;2023-02-26T03:23:33;0.00;71.80
9393;DHT22;4736;52.508;13.422;2023-02-26T03:26:40;0.00;71.80
9393;DHT22;4736;52.508;13.422;2023-02-26T03:29:49;0.00;71.80
9393;DHT22;4736;52.508;13.422;2023-02-26T03:32:59;0.00;71.90
9393;DHT22;4736;52.508;13.422;2023-02-26T03:36:10;0.00;72.00
9393;DHT22;4736;52.508;13.422;2023-02-26T03:39:19;0.00;71.90
9393;DHT22;4736;52.508;13.422;2023-02-26T03:42:27;0.00;72.00
9393;DHT22;4736;52.508;13.422;2023-02-26T03:45:34;0.00;72.20
9393;DHT22;4736;52.508;13.422;2023-02-26T03:48:39;0.00;72.10
9393;DHT22;4736;52.508;13.422;2023-02-26T03:51:44;0.00;72.20
9393;DHT22;4736;52.508;13.422;2023-02-26T03:54:52;0.00;72.30
9393;DHT22;4736;52.508;13.422;2023-02-26T03:57:58;0.00;72.40
9393;DHT22;4736;52.508;13.422;2023-02-26T04:01:04;0.00;72.60
9393;DHT22;4736;52.508;13.422;2023-02-26T04:04:11;0.00;72.50
9393;DHT22;4736;52.508;13.422;2023-02-26T04:07:17;0.00;72.50
9393;DHT22;4736;52.508;13.422;2023-02-26T04:10:26;0.00;72.60
9393;DHT22;4736;52.508;13.422;2023-02-26T04:13:31;0.00;72.30
9393;DHT22;4736;52.508;13.422;2023-02-26T04:16:34;0.00;72.50
9393;DHT22;4736;52.508;13.422;2023-02-26T04:19:37;0.00;72.40
9393;DHT22;4736;52.508;13.422;2023-02-26T04:22:41;0.00;72.40
9393;DHT22;4736;52.508;13.422;2023-02-26T04:25:45;0.00;72.20
9393;DHT22;4736;52.508;13.422;2023-02-26T04:28:48;0.10;71.90
9393;DHT22;4736;52.508;13.422;2023-02-26T04:31:51;0.00;72.30
9393;DHT22;4736;52.508;13.422;2023-02-26T04:34:54;0.00;72.20
9393;DHT22;4736;52.508;13.422;2023-02-26T04:37:58;0.00;72.10
9393;DHT22;4736;52.508;13.422;2023-02-26T04:41:02;0.00;72.20
9393;DHT22;4736;52.508;13.422;2023-02-26T04:44:05;0.00;71.90
9393;DHT22;4736;52.508;13.422;2023-02-26T04:47:08;0.00;71.80
9393;DHT22;4736;52.508;13.422;2023-02-26T04:50:11;0.00;71.80
9393;DHT22;4736;52.508;13.422;2023-02-26T04:53:16;0.10;71.50
9393;DHT22;4736;52.508;13.422;2023-02-26T04:56:19;0.00;71.60
9393;DHT22;4736;52.508;13.422;2023-02-26T04:59:23;0.10;71.20
9393;DHT22;4736;52.508;13.422;2023-02-26T05:02:26;0.10;71.20
9393;DHT22;4736;52.508;13.422;2023-02-26T05:05:29;0.10;71.10
9393;DHT22;4736;52.508;13.422;2023-02-26T05:08:33;0.00;71.30
9393;DHT22;4736;52.508;13.422;2023-02-26T05:11:36;0.00;71.20
9393;DHT22;4736;52.508;13.422;2023-02-26T05:14:39;0.10;71.00
9393;DHT22;4736;52.508;13.422;2023-02-26T05:17:43;0.20;70.80
9393;DHT22;4736;52.508;13.422;2023-02-26T05:20:51;0.20;70.70
9393;DHT22;4736;52.508;13.422;2023-02-26T05:23:55;0.00;70.90
9393;DHT22;4736;52.508;13.422;2023-02-26T05:26:58;0.10;70.60
9393;DHT22;4736;52.508;13.422;2023-02-26T05:30:02;0.20;70.40
9393;DHT22;4736;52.508;13.422;2023-02-26T05:33:07;0.20;70.30
9393;DHT22;4736;52.508;13.422;2023-02-26T05:36:11;0.20;70.50
9393;DHT22;4736;52.508;13.422;2023-02-26T05:39:15;0.20;70.40
9393;DHT22;4736;52.508;13.422;2023-02-26T05:42:18;0.20;70.20
9393;DHT22;4736;52.508;13.422;2023-02-26T05:45:23;0.20;70.40
9393;DHT22;4736;52.508;13.422;2023-02-26T05:48:26;0.20;69.90
9393;DHT22;4736;52.508;13.422;2023-02-26T05:51:30;0.20;69.80
9393;DHT22;4736;52.508;13.422;2023-02-26T05:54:34;0.20;69.00
9393;DHT22;4736;52.508;13.422;2023-02-26T05:57:37;0.20;69.00
9393;DHT22;4736;52.508;13.422;2023-02-26T06:00:40;0.20;69.40
9393;DHT22;4736;52.508;13.422;2023-02-26T06:03:44;0.20;69.40
9393;DHT22;4736;52.508;13.422;2023-02-26T06:06:47;0.20;69.30
9393;DHT22;4736;52.508;13.422;2023-02-26T06:09:51;0.20;69.40
9393;DHT22;4736;52.508;13.422;2023-02-26T06:12:54;0.10;69.20
9393;DHT22;4736;52.508;13.422;2023-02-26T06:15:57;0.20;68.80
9393;DHT22;4736;52.508;13.422;2023-02-26T06:19:00;0.30;68.90
9393;DHT22;4736;52.508;13.422;2023-02-26T06:22:03;0.30;68.70
9393;DHT22;4736;52.508;13.422;2023-02-26T06:25:08;0.30;68.50
9393;DHT22;4736;52.508;13.422;2023-02-26T06:28:11;0.30;69.00
9393;DHT22;4736;52.508;13.422;2023-02-26T06:31:14;0.30;68.90
9393;DHT22;4736;52.508;13.422;2023-02-26T06:34:17;0.40;68.40
9393;DHT22;4736;52.508;13.422;2023-02-26T06:37:21;0.40;68.40
9393;DHT22;4736;52.508;13.422;2023-02-26T06:40:25;0.40;68.40
9393;DHT22;4736;52.508;13.422;2023-02-26T06:43:29;0.40;68.50
9393;DHT22;4736;52.508;13.422;2023-02-26T06:46:33;0.40;68.20
9393;DHT22;4736;52.508;13.422;2023-02-26T06:49:35;0.40;67.80
9393;DHT22;4736;52.508;13.422;2023-02-26T06:52:38;0.50;68.00
9393;DHT22;4736;52.508;13.422;2023-02-26T06:55:44;0.60;67.50
9393;DHT22;4736;52.508;13.422;2023-02-26T06:58:48;0.70;67.10
9393;DHT22;4736;52.508;13.422;2023-02-26T07:01:51;0.80;67.00
9393;DHT22;4736;52.508;13.422;2023-02-26T07:04:54;0.80;67.10
9393;DHT22;4736;52.508;13.422;2023-02-26T07:07:57;0.90;66.50
9393;DHT22;4736;52.508;13.422;2023-02-26T07:11:01;1.00;66.60
9393;DHT22;4736;52.508;13.422;2023-02-26T07:14:04;1.10;66.50
9393;DHT22;4736;52.508;13.422;2023-02-26T07:17:08;1.30;65.30
9393;DHT22;4736;52.508;13.422;2023-02-26T07:20:20;1.20;65.30
9393;DHT22;4736;52.508;13.422;2023-02-26T07:23:23;1.10;65.70
9393;DHT22;4736;52.508;13.422;2023-02-26T07:26:28;1.00;65.90
9393;DHT22;4736;52.508;13.422;2023-02-26T07:29:31;0.90;65.80
9393;DHT22;4736;52.508;13.422;2023-02-26T07:32:34;0.80;66.20
9393;DHT22;4736;52.508;13.422;2023-02-26T07:35:38;0.80;66.20
9393;DHT22;4736;52.508;13.422;2023-02-26T07:38:41;0.80;66.50
9393;DHT22;4736;52.508;13.422;2023-02-26T07:41:45;0.80;66.50
9393;DHT22;4736;52.508;13.422;2023-02-26T07:44:48;0.80;66.30
9393;DHT22;4736;52.508;13.422;2023-02-26T07:47:52;0.80;66.20
9393;DHT22;4736;52.508;13.422;2023-02-26T07:50:55;0.80;66.10
9393;DHT22;4736;52.508;13.422;2023-02-26T07:53:58;0.80;66.40
9393;DHT22;4736;52.508;13.422;2023-02-26T07:57:03;0.90;66.10
9393;DHT22;4736;52.508;13.422;2023-02-26T08:00:07;1.00;66.20
9393;DHT22;4736;52.508;13.422;2023-02-26T08:03:11;1.10;65.80
9393;DHT22;4736;52.508;13.422;2023-02-26T08:06:16;1.20;65.80
9393;DHT22;4736;52.508;13.422;2023-02-26T08:09:19;1.20;65.30
9393;DHT22;4736;52.508;13.422;2023-02-26T08:12:23;1.20;65.60
9393;DHT22;4736;52.508;13.422;2023-02-26T08:15:27;1.30;65.90
9393;DHT22;4736;52.508;13.422;2023-02-26T08:18:30;1.40;65.00
9393;DHT22;4736;52.508;13.422;2023-02-26T08:21:33;1.40;64.50
9393;DHT22;4736;52.508;13.422;2023-02-26T08:24:36;1.40;64.30
9393;DHT22;4736;52.508;13.422;2023-02-26T08:27:41;1.40;64.30
9393;DHT22;4736;52.508;13.422;2023-02-26T08:30:44;1.50;64.30
9393;DHT22;4736;52.508;13.422;2023-02-26T08:33:47;1.50;64.40
9393;DHT22;4736;52.508;13.422;2023-02-26T08:36:50;1.60;64.40
9393;DHT22;4736;52.508;13.422;2023-02-26T08:39:53;1.60;63.80
9393;DHT22;4736;52.508;13.422;2023-02-26T08:42:58;1.60;63.70
9393;DHT22;4736;52.508;13.422;2023-02-26T08:46:01;1.70;64.10
9393;DHT22;4736;52.508;13.422;2023-02-26T08:49:04;1.70;64.00
9393;DHT22;4736;52.508;13.422;2023-02-26T08:52:08;1.80;63.20
9393;DHT22;4736;52.508;13.422;2023-02-26T08:55:11;1.90;63.60
9393;DHT22;4736;52.508;13.422;2023-02-26T08:58:15;2.00;63.40
9393;DHT22;4736;52.508;13.422;2023-02-26T09:01:18;2.00;62.90
9393;DHT22;4736;52.508;13.422;2023-02-26T09:04:21;2.10;63.20
9393;DHT22;4736;52.508;13.422;2023-02-26T09:07:24;2.10;63.30
9393;DHT22;4736;52.508;13.422;2023-02-26T09:10:27;2.20;62.80
9393;DHT22;4736;52.508;13.422;2023-02-26T09:13:32;2.30;62.70
9393;DHT22;4736;52.508;13.422;2023-02-26T09:16:35;2.50;61.70
9393;DHT22;4736;52.508;13.422;2023-02-26T09:19:39;2.50;61.90
9393;DHT22;4736;52.508;13.422;2023-02-26T09:22:42;2.50;60.70
9393;DHT22;4736;52.508;13.422;2023-02-26T09:25:45;2.50;60.80
9393;DHT22;4736;52.508;13.422;2023-02-26T09:28:50;2.50;60.70
9393;DHT22;4736;52.508;13.422;2023-02-26T09:31:53;2.40;61.30
9393;DHT22;4736;52.508;13.422;2023-02-26T09:34:56;2.50;61.20
9393;DHT22;4736;52.508;13.422;2023-02-26T09:38:00;2.60;60.80
9393;DHT22;4736;52.508;13.422;2023-02-26T09:41:07;2.80;60.70
9393;DHT22;4736;52.508;13.422;2023-02-26T09:44:19;2.90;60.40
9393;DHT22;4736;52.508;13.422;2023-02-26T09:47:26;2.80;60.10
9393;DHT22;4736;52.508;13.422;2023-02-26T09:50:37;2.90;60.20
9393;DHT22;4736;52.508;13.422;2023-02-26T09:53:41;3.10;60.40
9393;DHT22;4736;52.508;13.422;2023-02-26T09:56:46;3.30;60.40
9393;DHT22;4736;52.508;13.422;2023-02-26T09:59:51;3.30;59.50
9393;DHT22;4736;52.508;13.422;2023-02-26T10:02:59;3.30;59.20
9393;DHT22;4736;52.508;13.422;2023-02-26T10:06:16;3.50;58.40
9393;DHT22;4736;52.508;13.422;2023-02-26T10:09:32;3.70;57.70
9393;DHT22;4736;52.508;13.422;2023-02-26T10:12:40;3.90;57.90
9393;DHT22;4736;52.508;13.422;2023-02-26T10:15:46;3.90;57.80
9393;DHT22;4736;52.508;13.422;2023-02-26T10:18:53;4.00;57.10
9393;DHT22;4736;52.508;13.422;2023-02-26T10:22:01;3.80;57.00
9393;DHT22;4736;52.508;13.422;2023-02-26T10:25:10;3.50;56.80
9393;DHT22;4736;52.508;13.422;2023-02-26T10:28:27;3.70;56.30
9393;DHT22;4736;52.508;13.422;2023-02-26T10:31:38;3.70;56.50
9393;DHT22;4736;52.508;13.422;2023-02-26T10:34:49;3.80;56.10
9393;DHT22;4736;52.508;13.422;2023-02-26T10:37:56;3.70;56.20
9393;DHT22;4736;52.508;13.422;2023-02-26T10:41:04;3.70;54.30
9393;DHT22;4736;52.508;13.422;2023-02-26T10:44:17;3.90;55.40
9393;DHT22;4736;52.508;13.422;2023-02-26T10:47:32;4.00;54.70
9393;DHT22;4736;52.508;13.422;2023-02-26T10:50:43;3.90;54.80
9393;DHT22;4736;52.508;13.422;2023-02-26T10:53:51;3.90;54.90
9393;DHT22;4736;52.508;13.422;2023-02-26T10:56:55;3.90;55.40
9393;DHT22;4736;52.508;13.422;2023-02-26T10:59:59;4.00;54.20
9393;DHT22;4736;52.508;13.422;2023-02-26T11:03:04;4.10;53.70
9393;DHT22;4736;52.508;13.422;2023-02-26T11:06:10;4.30;53.30
9393;DHT22;4736;52.508;13.422;2023-02-26T11:09:19;4.50;54.00
9393;DHT22;4736;52.508;13.422;2023-02-26T11:12:24;4.70;52.30
9393;DHT22;4736;52.508;13.422;2023-02-26T11:15:28;5.00;52.30
9393;DHT22;4736;52.508;13.422;2023-02-26T11:18:38;5.00;52.00
9393;DHT22;4736;52.508;13.422;2023-02-26T11:21:45;5.10;51.40
9393;DHT22;4736;52.508;13.422;2023-02-26T11:24:49;5.00;51.60
9393;DHT22;4736;52.508;13.422;2023-02-26T11:27:58;4.70;50.90
9393;DHT22;4736;52.508;13.422;2023-02-26T11:31:06;4.80;51.30
9393;DHT22;4736;52.508;13.422;2023-02-26T11:34:11;4.90;51.00
9393;DHT22;4736;52.508;13.422;2023-02-26T11:37:19;5.00;51.20
9393;DHT22;4736;52.508;13.422;2023-02-26T11:40:25;5.30;49.80
9393;DHT22;4736;52.508;13.422;2023-02-26T11:43:36;5.50;50.30
9393;DHT22;4736;52.508;13.422;2023-02-26T11:46:42;5.60;49.30
9393;DHT22;4736;52.508;13.422;2023-02-26T11:49:51;5.50;49.80
9393;DHT22;4736;52.508;13.422;2023-02-26T11:52:56;5.00;50.60
9393;DHT22;4736;52.508;13.422;2023-02-26T11:56:01;4.40;51.50
9393;DHT22;4736;52.508;13.422;2023-02-26T11:59:06;4.20;52.60
9393;DHT22;4736;52.508;13.422;2023-02-26T12:02:12;4.10;52.10
9393;DHT22;4736;52.508;13.422;2023-02-26T12:05:17;4.20;52.10
9393;DHT22;4736;52.508;13.422;2023-02-26T12:08:24;4.30;52.30
9393;DHT22;4736;52.508;13.422;2023-02-26T12:11:49;4.10;52.40
9393;DHT22;4736;52.508;13.422;2023-02-26T12:15:05;3.90;52.20
9393;DHT22;4736;52.508;13.422;2023-02-26T12:18:24;3.70;52.80
9393;DHT22;4736;52.508;13.422;2023-02-26T12:21:47;3.50;53.60
9393;DHT22;4736;52.508;13.422;2023-02-26T12:25:17;3.70;54.40
9393;DHT22;4736;52.508;13.422;2023-02-26T12:28:41;4.20;53.00
9393;DHT22;4736;52.508;13.422;2023-02-26T12:31:56;4.40;52.30
9393;DHT22;4736;52.508;13.422;2023-02-26T12:35:29;4.70;51.50
9393;DHT22;4736;52.508;13.422;2023-02-26T12:38:50;4.90;51.70
9393;DHT22;4736;52.508;13.422;2023-02-26T12:42:03;5.20;50.50
9393;DHT22;4736;52.508;13.422;2023-02-26T12:45:25;5.20;51.00
9393;DHT22;4736;52.508;13.422;2023-02-26T12:49:18;5.30;50.30
9393;DHT22;4736;52.508;13.422;2023-02-26T12:52:48;5.50;50.40
9393;DHT22;4736;52.508;13.422;2023-02-26T12:56:18;5.50;50.00
9393;DHT22;4736;52.508;13.422;2023-02-26T12:59:40;5.30;49.60
9393;DHT22;4736;52.508;13.422;2023-02-26T13:03:20;5.00;49.70
9393;DHT22;4736;52.508;13.422;2023-02-26T13:10:27;4.40;50.10
9393;DHT22;4736;52.508;13.422;2023-02-26T13:17:10;4.20;50.40
9393;DHT22;4736;52.508;13.422;2023-02-26T13:20:17;4.90;50.50
9393;DHT22;4736;52.508;13.422;2023-02-26T13:23:23;5.20;50.50
9393;DHT22;4736;52.508;13.422;2023-02-26T13:26:29;5.20;50.20
9393;DHT22;4736;52.508;13.422;2023-02-26T13:29:36;4.80;50.50
9393;DHT22;4736;52.508;13.422;2023-02-26T13:32:43;4.60;50.40
9393;DHT22;4736;52.508;13.422;2023-02-26T13:35:49;4.20;50.20
9393;DHT22;4736;52.508;13.422;2023-02-26T13:39:07;4.20;50.90
9393;DHT22;4736;52.508;13.422;2023-02-26T13:42:26;4.10;51.80
9393;DHT22;4736;52.508;13.422;2023-02-26T13:45:45;4.40;51.50
9393;DHT22;4736;52.508;13.422;2023-02-26T13:48:59;4.70;51.10
9393;DHT22;4736;52.508;13.422;2023-02-26T13:52:22;4.50;49.10
9393;DHT22;4736;52.508;13.422;2023-02-26T13:55:40;4.20;49.60
9393;DHT22;4736;52.508;13.422;2023-02-26T13:58:48;4.10;50.00
9393;DHT22;4736;52.508;13.422;2023-02-26T14:01:55;3.90;50.70
9393;DHT22;4736;52.508;13.422;2023-02-26T14:05:00;3.90;50.70
9393;DHT22;4736;52.508;13.422;2023-02-26T14:08:25;3.90;51.20
9393;DHT22;4736;52.508;13.422;2023-02-26T14:11:37;3.90;51.70
9393;DHT22;4736;52.508;13.422;2023-02-26T14:15:16;4.00;51.40
9393;DHT22;4736;52.508;13.422;2023-02-26T14:22:18;4.00;49.70
9393;DHT22;4736;52.508;13.422;2023-02-26T14:25:29;4.00;50.30
9393;DHT22;4736;52.508;13.422;2023-02-26T14:28:44;4.00;50.30
9393;DHT22;4736;52.508;13.422;2023-02-26T14:32:03;4.20;49.80
9393;DHT22;4736;52.508;13.422;2023-02-26T14:35:11;4.20;49.90
9393;DHT22;4736;52.508;13.422;2023-02-26T14:38:19;4.30;49.90
9393;DHT22;4736;52.508;13.422;2023-02-26T14:41:27;4.10;49.80
9393;DHT22;4736;52.508;13.422;2023-02-26T14:44:35;4.00;49.70
9393;DHT22;4736;52.508;13.422;2023-02-26T14:47:39;3.90;50.50
9393;DHT22;4736;52.508;13.422;2023-02-26T14:50:51;3.90;50.50
9393;DHT22;4736;52.508;13.422;2023-02-26T14:54:09;3.90;50.50
9393;DHT22;4736;52.508;13.422;2023-02-26T14:57:22;3.90;50.00
9393;DHT22;4736;52.508;13.422;2023-02-26T15:00:35;3.90;48.80
9393;DHT22;4736;52.508;13.422;2023-02-26T15:04:13;3.60;48.30
9393;DHT22;4736;52.508;13.422;2023-02-26T15:07:35;3.40;48.10
9393;DHT22;4736;52.508;13.422;2023-02-26T15:10:50;3.30;48.80
9393;DHT22;4736;52.508;13.422;2023-02-26T15:14:08;3.20;48.60
9393;DHT22;4736;52.508;13.422;2023-02-26T15:17:22;3.10;49.10
9393;DHT22;4736;52.508;13.422;2023-02-26T15:20:33;3.10;49.60
9393;DHT22;4736;52.508;13.422;2023-02-26T15:23:43;3.30;50.00
9393;DHT22;4736;52.508;13.422;2023-02-26T15:26:50;3.30;50.10
9393;DHT22;4736;52.508;13.422;2023-02-26T15:29:54;3.40;49.50
9393;DHT22;4736;52.508;13.422;2023-02-26T15:32:59;3.50;50.00
9393;DHT22;4736;52.508;13.422;2023-02-26T15:36:06;3.50;50.30
9393;DHT22;4736;52.508;13.422;2023-02-26T15:39:14;3.50;50.10
9393;DHT22;4736;52.508;13.422;2023-02-26T15:42:19;3.40;49.20
9393;DHT22;4736;52.508;13.422;2023-02-26T15:45:27;3.40;49.10
9393;DHT22;4736;52.508;13.422;2023-02-26T15:48:32;3.30;49.10
9393;DHT22;4736;52.508;13.422;2023-02-26T15:51:37;3.30;49.50
9393;DHT22;4736;52.508;13.422;2023-02-26T15:54:44;3.30;49.00
9393;DHT22;4736;52.508;13.422;2023-02-26T15:57:48;3.10;49.50
9393;DHT22;4736;52.508;13.422;2023-02-26T16:00:53;3.10;50.10
9393;DHT22;4736;52.508;13.422;2023-02-26T16:03:59;3.00;50.10
9393;DHT22;4736;52.508;13.422;2023-02-26T16:07:03;2.90;50.40
9393;DHT22;4736;52.508;13.422;2023-02-26T16:10:25;2.90;50.50
9393;DHT22;4736;52.508;13.422;2023-02-26T16:13:30;2.70;51.10
9393;DHT22;4736;52.508;13.422;2023-02-26T16:16:39;2.60;51.40
9393;DHT22;4736;52.508;13.422;2023-02-26T16:19:45;2.50;51.60
9393;DHT22;4736;52.508;13.422;2023-02-26T16:22:52;2.50;51.90
9393;DHT22;4736;52.508;13.422;2023-02-26T16:26:01;2.40;51.90
9393;DHT22;4736;52.508;13.422;2023-02-26T16:29:09;2.30;52.50
9393;DHT22;4736;52.508;13.422;2023-02-26T16:32:16;2.20;52.60
9393;DHT22;4736;52.508;13.422;2023-02-26T16:35:20;2.10;52.90
9393;DHT22;4736;52.508;13.422;2023-02-26T16:38:27;2.10;53.40
9393;DHT22;4736;52.508;13.422;2023-02-26T16:41:33;2.00;53.70
9393;DHT22;4736;52.508;13.422;2023-02-26T16:44:44;1.90;53.90
9393;DHT22;4736;52.508;13.422;2023-02-26T16:47:50;1.80;54.20
9393;DHT22;4736;52.508;13.422;2023-02-26T16:50:57;1.70;54.70
9393;DHT22;4736;52.508;13.422;2023-02-26T16:54:05;1.70;55.00
9393;DHT22;4736;52.508;13.422;2023-02-26T16:57:17;1.60;55.40
9393;DHT22;4736;52.508;13.422;2023-02-26T17:00:22;1.60;55.50
9393;DHT22;4736;52.508;13.422;2023-02-26T17:03:32;1.60;55.80
9393;DHT22;4736;52.508;13.422;2023-02-26T17:06:37;1.60;56.00
9393;DHT22;4736;52.508;13.422;2023-02-26T17:09:47;1.60;56.00
9393;DHT22;4736;52.508;13.422;2023-02-26T17:12:53;1.60;56.20
9393;DHT22;4736;52.508;13.422;2023-02-26T17:16:05;1.60;56.30
9393;DHT22;4736;52.508;13.422;2023-02-26T17:19:09;1.50;56.50
9393;DHT22;4736;52.508;13.422;2023-02-26T17:22:14;1.40;56.60
9393;DHT22;4736;52.508;13.422;2023-02-26T17:25:18;1.40;56.90
9393;DHT22;4736;52.508;13.422;2023-02-26T17:28:26;1.40;57.20
9393;DHT22;4736;52.508;13.422;2023-02-26T17:31:29;1.50;57.10
9393;DHT22;4736;52.508;13.422;2023-02-26T17:34:32;1.50;57.20
9393;DHT22;4736;52.508;13.422;2023-02-26T17:37:35;1.50;57.30
9393;DHT22;4736;52.508;13.422;2023-02-26T17:40:41;1.60;57.10
9393;DHT22;4736;52.508;13.422;2023-02-26T17:43:45;1.60;57.20
9393;DHT22;4736;52.508;13.422;2023-02-26T17:46:49;1.60;57.20
9393;DHT22;4736;52.508;13.422;2023-02-26T17:49:52;1.70;57.30
9393;DHT22;4736;52.508;13.422;2023-02-26T17:52:56;1.60;57.10
9393;DHT22;4736;52.508;13.422;2023-02-26T17:55:59;1.60;57.10
9393;DHT22;4736;52.508;13.422;2023-02-26T17:59:03;1.50;57.30
9393;DHT22;4736;52.508;13.422;2023-02-26T18:02:15;1.50;57.40
9393;DHT22;4736;52.508;13.422;2023-02-26T18:05:18;1.50;57.60
9393;DHT22;4736;52.508;13.422;2023-02-26T18:08:24;1.40;57.80
9393;DHT22;4736;52.508;13.422;2023-02-26T18:11:27;1.30;58.00
9393;DHT22;4736;52.508;13.422;2023-02-26T18:14:32;1.20;58.20
9393;DHT22;4736;52.508;13.422;2023-02-26T18:17:36;1.20;58.20
9393;DHT22;4736;52.508;13.422;2023-02-26T18:20:40;1.10;58.50
9393;DHT22;4736;52.508;13.422;2023-02-26T18:23:44;1.00;58.70
9393;DHT22;4736;52.508;13.422;2023-02-26T18:26:47;1.00;58.80
9393;DHT22;4736;52.508;13.422;2023-02-26T18:29:53;1.00;58.70
9393;DHT22;4736;52.508;13.422;2023-02-26T18:32:56;1.00;58.80
9393;DHT22;4736;52.508;13.422;2023-02-26T18:36:00;0.80;59.30
9393;DHT22;4736;52.508;13.422;2023-02-26T18:39:05;0.80;59.40
9393;DHT22;4736;52.508;13.422;2023-02-26T18:42:16;0.80;59.20
9393;DHT22;4736;52.508;13.422;2023-02-26T18:45:21;0.80;59.10
9393;DHT22;4736;52.508;13.422;2023-02-26T18:48:24;0.80;59.00
9393;DHT22;4736;52.508;13.422;2023-02-26T18:51:28;0.70;59.20
9393;DHT22;4736;52.508;13.422;2023-02-26T18:54:31;0.60;59.60
9393;DHT22;4736;52.508;13.422;2023-02-26T18:57:34;0.60;59.70
9393;DHT22;4736;52.508;13.422;2023-02-26T19:00:39;0.60;59.50
9393;DHT22;4736;52.508;13.422;2023-02-26T19:03:45;0.60;59.40
9393;DHT22;4736;52.508;13.422;2023-02-26T19:06:48;0.50;59.60
9393;DHT22;4736;52.508;13.422;2023-02-26T19:09:51;0.40;59.70
9393;DHT22;4736;52.508;13.422;2023-02-26T19:12:54;0.40;59.70
9393;DHT22;4736;52.508;13.422;2023-02-26T19:15:59;0.40;59.80
9393;DHT22;4736;52.508;13.422;2023-02-26T19:19:02;0.40;60.00
9393;DHT22;4736;52.508;13.422;2023-02-26T19:22:07;0.30;60.10
9393;DHT22;4736;52.508;13.422;2023-02-26T19:25:11;0.30;60.20
9393;DHT22;4736;52.508;13.422;2023-02-26T19:28:14;0.30;60.10
9393;DHT22;4736;52.508;13.422;2023-02-26T19:31:19;0.20;60.30
9393;DHT22;4736;52.508;13.422;2023-02-26T19:34:22;0.10;60.30
9393;DHT22;4736;52.508;13.422;2023-02-26T19:37:25;0.00;60.60
9393;DHT22;4736;52.508;13.422;2023-02-26T19:40:28;0.00;60.50
9393;DHT22;4736;52.508;13.422;2023-02-26T19:43:32;0.00;60.70
9393;DHT22;4736;52.508;13.422;2023-02-26T19:46:40;0.00;60.80
9393;DHT22;4736;52.508;13.422;2023-02-26T19:49:44;0.00;60.90
9393;DHT22;4736;52.508;13.422;2023-02-26T19:52:47;0.00;60.80
9393;DHT22;4736;52.508;13.422;2023-02-26T19:55:50;0.00;60.90
9393;DHT22;4736;52.508;13.422;2023-02-26T19:58:54;0.00;61.00
9393;DHT22;4736;52.508;13.422;2023-02-26T20:02:01;-0.10;61.30
9393;DHT22;4736;52.508;13.422;2023-02-26T20:05:06;-0.10;61.30
9393;DHT22;4736;52.508;13.422;2023-02-26T20:08:12;-0.10;61.30
9393;DHT22;4736;52.508;13.422;2023-02-26T20:11:15;-0.10;61.30
9393;DHT22;4736;52.508;13.422;2023-02-26T20:14:18;-0.10;61.40
9393;DHT22;4736;52.508;13.422;2023-02-26T20:17:23;-0.20;61.50
9393;DHT22;4736;52.508;13.422;2023-02-26T20:20:26;-0.20;61.70
9393;DHT22;4736;52.508;13.422;2023-02-26T20:23:32;-0.20;61.60
9393;DHT22;4736;52.508;13.422;2023-02-26T20:26:37;-0.20;61.70
9393;DHT22;4736;52.508;13.422;2023-02-26T20:29:41;-0.20;61.60
9393;DHT22;4736;52.508;13.422;2023-02-26T20:32:45;-0.20;61.70
9393;DHT22;4736;52.508;13.422;2023-02-26T20:35:49;-0.20;61.70